sensor_id;sensor_type;location;lat;lon;timestamp;P1;durP1;ratioP1;P2;durP2;ratioP2
24090;SDS011;12272;52.426;17.100;2023-09-19T00:01:18;5.43;;;4.18;;
24090;SDS011;12272;52.426;17.100;2023-09-19T00:06:22;8.10;;;5.97;;
24090;SDS011;12272;52.426;17.100;2023-09-19T00:11:28;7.40;;;6.70;;
24090;SDS011;12272;52.426;17.100;2023-09-19T00:16:30;6.45;;;4.55;;
24090;SDS011;12272;52.426;17.100;2023-09-19T00:21:34;5.75;;;5.15;;
24090;SDS011;12272;52.426;17.100;2023-09-19T00:26:39;5.45;;;4.95;;
24090;SDS011;12272;52.426;17.100;2023-09-19T00:31:45;5.38;;;4.60;;
24090;SDS011;12272;52.426;17.100;2023-09-19T00:36:47;5.85;;;5.30;;
24090;SDS011;12272;52.426;17.100;2023-09-19T00:41:50;7.65;;;6.43;;
24090;SDS011;12272;52.426;17.100;2023-09-19T00:46:52;8.90;;;6.95;;
24090;SDS011;12272;52.426;17.100;2023-09-19T00:51:55;5.38;;;4.43;;
24090;SDS011;12272;52.426;17.100;2023-09-19T00:56:58;5.38;;;3.92;;
24090;SDS011;12272;52.426;17.100;2023-09-19T01:02:02;7.75;;;4.07;;
24090;SDS011;12272;52.426;17.100;2023-09-19T01:07:07;4.50;;;3.58;;
24090;SDS011;12272;52.426;17.100;2023-09-19T01:12:10;4.55;;;4.15;;
24090;SDS011;12272;52.426;17.100;2023-09-19T01:17:24;5.15;;;4.65;;
24090;SDS011;12272;52.426;17.100;2023-09-19T01:22:37;5.85;;;5.28;;
24090;SDS011;12272;52.426;17.100;2023-09-19T01:33:08;8.70;;;5.88;;
24090;SDS011;12272;52.426;17.100;2023-09-19T01:38:12;7.75;;;4.80;;
24090;SDS011;12272;52.426;17.100;2023-09-19T01:48:35;6.30;;;5.45;;
24090;SDS011;12272;52.426;17.100;2023-09-19T01:58:51;7.10;;;6.40;;
24090;SDS011;12272;52.426;17.100;2023-09-19T02:03:58;5.97;;;5.43;;
24090;SDS011;12272;52.426;17.100;2023-09-19T02:09:01;7.72;;;5.82;;
24090;SDS011;12272;52.426;17.100;2023-09-19T02:14:04;6.28;;;5.68;;
24090;SDS011;12272;52.426;17.100;2023-09-19T02:19:10;6.43;;;5.82;;
24090;SDS011;12272;52.426;17.100;2023-09-19T02:24:13;3.58;;;3.22;;
24090;SDS011;12272;52.426;17.100;2023-09-19T02:29:17;4.03;;;3.70;;
24090;SDS011;12272;52.426;17.100;2023-09-19T02:34:19;5.03;;;3.33;;
24090;SDS011;12272;52.426;17.100;2023-09-19T02:39:22;7.40;;;2.40;;
24090;SDS011;12272;52.426;17.100;2023-09-19T02:44:25;3.75;;;2.70;;
24090;SDS011;12272;52.426;17.100;2023-09-19T02:49:28;3.88;;;2.70;;
24090;SDS011;12272;52.426;17.100;2023-09-19T02:54:31;7.07;;;2.95;;
24090;SDS011;12272;52.426;17.100;2023-09-19T02:59:34;3.80;;;2.90;;
24090;SDS011;12272;52.426;17.100;2023-09-19T03:04:39;6.32;;;3.58;;
24090;SDS011;12272;52.426;17.100;2023-09-19T03:09:42;5.63;;;4.55;;
24090;SDS011;12272;52.426;17.100;2023-09-19T03:14:45;5.45;;;2.63;;
24090;SDS011;12272;52.426;17.100;2023-09-19T03:19:48;3.72;;;3.22;;
24090;SDS011;12272;52.426;17.100;2023-09-19T03:24:50;4.13;;;3.83;;
24090;SDS011;12272;52.426;17.100;2023-09-19T03:29:54;5.25;;;4.78;;
24090;SDS011;12272;52.426;17.100;2023-09-19T03:34:57;4.45;;;3.63;;
24090;SDS011;12272;52.426;17.100;2023-09-19T03:40:00;5.75;;;5.20;;
24090;SDS011;12272;52.426;17.100;2023-09-19T03:45:07;5.40;;;5.00;;
24090;SDS011;12272;52.426;17.100;2023-09-19T03:50:18;5.15;;;3.75;;
24090;SDS011;12272;52.426;17.100;2023-09-19T03:55:21;5.10;;;4.65;;
24090;SDS011;12272;52.426;17.100;2023-09-19T04:00:23;6.88;;;5.47;;
24090;SDS011;12272;52.426;17.100;2023-09-19T04:05:28;4.97;;;4.53;;
24090;SDS011;12272;52.426;17.100;2023-09-19T04:10:30;5.00;;;4.38;;
24090;SDS011;12272;52.426;17.100;2023-09-19T04:15:33;7.07;;;4.00;;
24090;SDS011;12272;52.426;17.100;2023-09-19T04:20:36;6.28;;;4.30;;
24090;SDS011;12272;52.426;17.100;2023-09-19T04:25:40;5.65;;;5.10;;
24090;SDS011;12272;52.426;17.100;2023-09-19T04:30:43;4.55;;;3.95;;
24090;SDS011;12272;52.426;17.100;2023-09-19T04:35:48;3.95;;;3.58;;
24090;SDS011;12272;52.426;17.100;2023-09-19T04:40:56;6.55;;;4.20;;
24090;SDS011;12272;52.426;17.100;2023-09-19T04:46:00;7.95;;;5.82;;
24090;SDS011;12272;52.426;17.100;2023-09-19T04:51:03;9.82;;;5.05;;
24090;SDS011;12272;52.426;17.100;2023-09-19T04:56:05;4.68;;;4.20;;
24090;SDS011;12272;52.426;17.100;2023-09-19T05:01:09;4.97;;;4.55;;
24090;SDS011;12272;52.426;17.100;2023-09-19T05:06:14;9.57;;;4.30;;
24090;SDS011;12272;52.426;17.100;2023-09-19T05:11:20;5.88;;;4.53;;
24090;SDS011;12272;52.426;17.100;2023-09-19T05:16:24;5.05;;;4.55;;
24090;SDS011;12272;52.426;17.100;2023-09-19T05:21:30;4.00;;;3.03;;
24090;SDS011;12272;52.426;17.100;2023-09-19T05:26:33;4.85;;;2.40;;
24090;SDS011;12272;52.426;17.100;2023-09-19T05:31:35;2.85;;;2.20;;
24090;SDS011;12272;52.426;17.100;2023-09-19T05:36:46;3.25;;;2.55;;
24090;SDS011;12272;52.426;17.100;2023-09-19T05:41:50;6.05;;;3.40;;
24090;SDS011;12272;52.426;17.100;2023-09-19T05:46:53;6.45;;;2.55;;
24090;SDS011;12272;52.426;17.100;2023-09-19T05:51:58;3.92;;;1.92;;
24090;SDS011;12272;52.426;17.100;2023-09-19T05:57:02;4.13;;;2.30;;
24090;SDS011;12272;52.426;17.100;2023-09-19T06:02:05;3.00;;;1.83;;
24090;SDS011;12272;52.426;17.100;2023-09-19T06:07:08;3.72;;;2.40;;
24090;SDS011;12272;52.426;17.100;2023-09-19T06:12:11;3.15;;;2.10;;
24090;SDS011;12272;52.426;17.100;2023-09-19T06:17:14;3.00;;;2.03;;
24090;SDS011;12272;52.426;17.100;2023-09-19T06:22:17;3.78;;;1.35;;
24090;SDS011;12272;52.426;17.100;2023-09-19T06:27:20;1.73;;;1.40;;
24090;SDS011;12272;52.426;17.100;2023-09-19T06:32:27;2.67;;;1.52;;
24090;SDS011;12272;52.426;17.100;2023-09-19T06:37:30;3.63;;;2.38;;
24090;SDS011;12272;52.426;17.100;2023-09-19T06:42:33;4.38;;;2.60;;
24090;SDS011;12272;52.426;17.100;2023-09-19T06:47:39;7.30;;;3.22;;
24090;SDS011;12272;52.426;17.100;2023-09-19T06:52:41;3.53;;;2.00;;
24090;SDS011;12272;52.426;17.100;2023-09-19T06:57:44;2.38;;;1.55;;
24090;SDS011;12272;52.426;17.100;2023-09-19T07:03:06;2.92;;;1.40;;
24090;SDS011;12272;52.426;17.100;2023-09-19T07:08:15;5.05;;;2.92;;
24090;SDS011;12272;52.426;17.100;2023-09-19T07:13:18;4.80;;;1.80;;
24090;SDS011;12272;52.426;17.100;2023-09-19T07:18:21;2.17;;;1.55;;
24090;SDS011;12272;52.426;17.100;2023-09-19T07:23:23;2.75;;;1.88;;
24090;SDS011;12272;52.426;17.100;2023-09-19T07:28:28;6.18;;;2.22;;
24090;SDS011;12272;52.426;17.100;2023-09-19T07:33:31;3.60;;;1.95;;
24090;SDS011;12272;52.426;17.100;2023-09-19T07:38:34;4.53;;;2.85;;
24090;SDS011;12272;52.426;17.100;2023-09-19T07:43:37;3.05;;;2.20;;
24090;SDS011;12272;52.426;17.100;2023-09-19T07:48:42;5.55;;;1.88;;
24090;SDS011;12272;52.426;17.100;2023-09-19T07:53:49;5.47;;;2.38;;
24090;SDS011;12272;52.426;17.100;2023-09-19T07:58:52;1.80;;;1.33;;
24090;SDS011;12272;52.426;17.100;2023-09-19T08:03:54;2.30;;;1.13;;
24090;SDS011;12272;52.426;17.100;2023-09-19T08:08:57;1.55;;;1.45;;
24090;SDS011;12272;52.426;17.100;2023-09-19T08:14:02;3.42;;;1.90;;
24090;SDS011;12272;52.426;17.100;2023-09-19T08:19:05;3.65;;;1.70;;
24090;SDS011;12272;52.426;17.100;2023-09-19T08:24:08;1.40;;;1.30;;
24090;SDS011;12272;52.426;17.100;2023-09-19T08:29:11;3.28;;;1.90;;
24090;SDS011;12272;52.426;17.100;2023-09-19T08:34:15;2.88;;;1.42;;
24090;SDS011;12272;52.426;17.100;2023-09-19T08:39:18;2.72;;;1.60;;
24090;SDS011;12272;52.426;17.100;2023-09-19T08:44:21;2.83;;;1.38;;
24090;SDS011;12272;52.426;17.100;2023-09-19T08:54:38;1.52;;;1.10;;
24090;SDS011;12272;52.426;17.100;2023-09-19T08:59:43;0.80;;;0.70;;
24090;SDS011;12272;52.426;17.100;2023-09-19T09:04:46;3.13;;;1.30;;
24090;SDS011;12272;52.426;17.100;2023-09-19T09:09:51;2.90;;;1.40;;
24090;SDS011;12272;52.426;17.100;2023-09-19T09:14:55;2.33;;;0.90;;
24090;SDS011;12272;52.426;17.100;2023-09-19T09:19:59;2.65;;;1.23;;
24090;SDS011;12272;52.426;17.100;2023-09-19T09:25:01;9.95;;;1.48;;
24090;SDS011;12272;52.426;17.100;2023-09-19T09:30:06;3.03;;;1.23;;
24090;SDS011;12272;52.426;17.100;2023-09-19T09:35:09;2.75;;;1.35;;
24090;SDS011;12272;52.426;17.100;2023-09-19T09:40:12;1.52;;;1.05;;
24090;SDS011;12272;52.426;17.100;2023-09-19T09:45:21;1.73;;;1.05;;
24090;SDS011;12272;52.426;17.100;2023-09-19T09:50:46;2.53;;;1.05;;
24090;SDS011;12272;52.426;17.100;2023-09-19T09:56:04;4.55;;;1.38;;
24090;SDS011;12272;52.426;17.100;2023-09-19T10:01:15;0.95;;;0.85;;
24090;SDS011;12272;52.426;17.100;2023-09-19T10:06:19;1.30;;;0.60;;
24090;SDS011;12272;52.426;17.100;2023-09-19T10:11:29;2.83;;;1.65;;
24090;SDS011;12272;52.426;17.100;2023-09-19T10:16:32;3.60;;;1.35;;
24090;SDS011;12272;52.426;17.100;2023-09-19T10:21:39;2.65;;;1.50;;
24090;SDS011;12272;52.426;17.100;2023-09-19T10:26:42;4.07;;;1.35;;
24090;SDS011;12272;52.426;17.100;2023-09-19T10:31:47;1.73;;;1.13;;
24090;SDS011;12272;52.426;17.100;2023-09-19T10:36:51;3.63;;;1.40;;
24090;SDS011;12272;52.426;17.100;2023-09-19T10:41:55;1.73;;;0.95;;
24090;SDS011;12272;52.426;17.100;2023-09-19T10:47:01;2.63;;;1.27;;
24090;SDS011;12272;52.426;17.100;2023-09-19T10:52:05;1.10;;;0.90;;
24090;SDS011;12272;52.426;17.100;2023-09-19T10:57:18;1.58;;;1.15;;
24090;SDS011;12272;52.426;17.100;2023-09-19T11:02:23;3.17;;;0.98;;
24090;SDS011;12272;52.426;17.100;2023-09-19T11:07:27;4.63;;;1.42;;
24090;SDS011;12272;52.426;17.100;2023-09-19T11:17:38;1.13;;;0.82;;
24090;SDS011;12272;52.426;17.100;2023-09-19T11:33:17;2.35;;;1.00;;
24090;SDS011;12272;52.426;17.100;2023-09-19T11:43:46;1.77;;;0.95;;
24090;SDS011;12272;52.426;17.100;2023-09-19T11:49:08;2.85;;;0.88;;
24090;SDS011;12272;52.426;17.100;2023-09-19T11:54:14;1.50;;;1.08;;
24090;SDS011;12272;52.426;17.100;2023-09-19T11:59:33;2.72;;;1.63;;
24090;SDS011;12272;52.426;17.100;2023-09-19T12:04:41;2.60;;;1.67;;
24090;SDS011;12272;52.426;17.100;2023-09-19T12:09:50;2.70;;;1.50;;
24090;SDS011;12272;52.426;17.100;2023-09-19T12:15:08;2.13;;;1.40;;
24090;SDS011;12272;52.426;17.100;2023-09-19T12:20:10;1.92;;;1.33;;
24090;SDS011;12272;52.426;17.100;2023-09-19T12:25:17;2.65;;;1.50;;
24090;SDS011;12272;52.426;17.100;2023-09-19T12:30:21;2.35;;;1.13;;
24090;SDS011;12272;52.426;17.100;2023-09-19T12:35:30;2.10;;;1.38;;
24090;SDS011;12272;52.426;17.100;2023-09-19T12:40:37;1.88;;;1.30;;
24090;SDS011;12272;52.426;17.100;2023-09-19T12:45:44;4.97;;;1.98;;
24090;SDS011;12272;52.426;17.100;2023-09-19T12:51:00;2.17;;;1.63;;
24090;SDS011;12272;52.426;17.100;2023-09-19T12:56:12;2.63;;;1.88;;
24090;SDS011;12272;52.426;17.100;2023-09-19T13:01:20;2.72;;;1.98;;
24090;SDS011;12272;52.426;17.100;2023-09-19T13:06:37;3.15;;;1.95;;
24090;SDS011;12272;52.426;17.100;2023-09-19T13:11:45;2.97;;;2.10;;
24090;SDS011;12272;52.426;17.100;2023-09-19T13:16:56;2.95;;;2.22;;
24090;SDS011;12272;52.426;17.100;2023-09-19T13:27:46;1.92;;;1.52;;
24090;SDS011;12272;52.426;17.100;2023-09-19T13:33:09;2.63;;;2.08;;
24090;SDS011;12272;52.426;17.100;2023-09-19T13:38:14;3.45;;;1.85;;
24090;SDS011;12272;52.426;17.100;2023-09-19T13:43:16;3.22;;;1.63;;
24090;SDS011;12272;52.426;17.100;2023-09-19T13:48:19;3.92;;;1.45;;
24090;SDS011;12272;52.426;17.100;2023-09-19T13:53:24;2.28;;;1.92;;
24090;SDS011;12272;52.426;17.100;2023-09-19T13:58:27;2.00;;;1.67;;
24090;SDS011;12272;52.426;17.100;2023-09-19T14:03:31;2.75;;;2.25;;
24090;SDS011;12272;52.426;17.100;2023-09-19T14:08:34;3.70;;;1.67;;
24090;SDS011;12272;52.426;17.100;2023-09-19T14:13:37;2.25;;;1.52;;
24090;SDS011;12272;52.426;17.100;2023-09-19T14:18:39;2.55;;;1.45;;
24090;SDS011;12272;52.426;17.100;2023-09-19T14:23:42;2.20;;;1.80;;
24090;SDS011;12272;52.426;17.100;2023-09-19T14:28:46;2.95;;;1.88;;
24090;SDS011;12272;52.426;17.100;2023-09-19T14:33:54;2.03;;;1.60;;
24090;SDS011;12272;52.426;17.100;2023-09-19T14:38:58;2.20;;;1.92;;
24090;SDS011;12272;52.426;17.100;2023-09-19T14:44:02;2.00;;;1.65;;
24090;SDS011;12272;52.426;17.100;2023-09-19T14:49:05;2.53;;;1.55;;
24090;SDS011;12272;52.426;17.100;2023-09-19T14:54:08;2.92;;;1.83;;
24090;SDS011;12272;52.426;17.100;2023-09-19T14:59:11;2.95;;;2.00;;
24090;SDS011;12272;52.426;17.100;2023-09-19T15:04:14;2.22;;;1.58;;
24090;SDS011;12272;52.426;17.100;2023-09-19T15:09:17;2.47;;;1.88;;
24090;SDS011;12272;52.426;17.100;2023-09-19T15:14:21;4.00;;;2.08;;
24090;SDS011;12272;52.426;17.100;2023-09-19T15:19:24;2.33;;;1.70;;
24090;SDS011;12272;52.426;17.100;2023-09-19T15:24:26;2.13;;;1.63;;
24090;SDS011;12272;52.426;17.100;2023-09-19T15:29:29;3.90;;;1.90;;
24090;SDS011;12272;52.426;17.100;2023-09-19T15:34:32;2.05;;;1.60;;
24090;SDS011;12272;52.426;17.100;2023-09-19T15:39:35;3.00;;;2.20;;
24090;SDS011;12272;52.426;17.100;2023-09-19T15:44:38;3.40;;;1.42;;
24090;SDS011;12272;52.426;17.100;2023-09-19T15:49:42;1.58;;;1.23;;
24090;SDS011;12272;52.426;17.100;2023-09-19T15:54:53;1.50;;;1.40;;
24090;SDS011;12272;52.426;17.100;2023-09-19T15:59:57;2.63;;;2.10;;
24090;SDS011;12272;52.426;17.100;2023-09-19T16:05:00;2.75;;;1.88;;
24090;SDS011;12272;52.426;17.100;2023-09-19T16:10:03;1.88;;;1.52;;
24090;SDS011;12272;52.426;17.100;2023-09-19T16:15:06;2.42;;;2.10;;
24090;SDS011;12272;52.426;17.100;2023-09-19T16:20:13;2.42;;;1.30;;
24090;SDS011;12272;52.426;17.100;2023-09-19T16:25:16;2.13;;;1.80;;
24090;SDS011;12272;52.426;17.100;2023-09-19T16:30:18;1.45;;;1.25;;
24090;SDS011;12272;52.426;17.100;2023-09-19T16:35:21;7.28;;;2.45;;
24090;SDS011;12272;52.426;17.100;2023-09-19T16:40:24;2.22;;;1.90;;
24090;SDS011;12272;52.426;17.100;2023-09-19T16:45:28;2.75;;;1.88;;
24090;SDS011;12272;52.426;17.100;2023-09-19T16:50:31;2.22;;;1.85;;
24090;SDS011;12272;52.426;17.100;2023-09-19T16:55:35;4.45;;;2.17;;
24090;SDS011;12272;52.426;17.100;2023-09-19T17:00:38;1.70;;;1.60;;
24090;SDS011;12272;52.426;17.100;2023-09-19T17:05:41;3.70;;;2.10;;
24090;SDS011;12272;52.426;17.100;2023-09-19T17:10:44;1.88;;;1.52;;
24090;SDS011;12272;52.426;17.100;2023-09-19T17:15:58;2.00;;;1.50;;
24090;SDS011;12272;52.426;17.100;2023-09-19T17:21:02;3.75;;;2.30;;
24090;SDS011;12272;52.426;17.100;2023-09-19T17:26:08;2.53;;;2.33;;
24090;SDS011;12272;52.426;17.100;2023-09-19T17:31:19;1.95;;;1.65;;
24090;SDS011;12272;52.426;17.100;2023-09-19T17:36:25;4.20;;;2.35;;
24090;SDS011;12272;52.426;17.100;2023-09-19T17:41:29;9.27;;;3.40;;
24090;SDS011;12272;52.426;17.100;2023-09-19T17:46:32;3.28;;;2.47;;
24090;SDS011;12272;52.426;17.100;2023-09-19T17:51:36;3.42;;;2.35;;
24090;SDS011;12272;52.426;17.100;2023-09-19T17:56:39;4.63;;;2.55;;
24090;SDS011;12272;52.426;17.100;2023-09-19T18:01:51;6.57;;;2.92;;
24090;SDS011;12272;52.426;17.100;2023-09-19T18:06:55;4.35;;;2.63;;
24090;SDS011;12272;52.426;17.100;2023-09-19T18:11:57;3.83;;;2.17;;
24090;SDS011;12272;52.426;17.100;2023-09-19T18:17:00;5.38;;;3.28;;
24090;SDS011;12272;52.426;17.100;2023-09-19T18:22:02;8.75;;;3.60;;
24090;SDS011;12272;52.426;17.100;2023-09-19T18:27:06;10.90;;;3.30;;
24090;SDS011;12272;52.426;17.100;2023-09-19T18:32:10;5.38;;;3.05;;
24090;SDS011;12272;52.426;17.100;2023-09-19T18:37:13;12.43;;;4.28;;
24090;SDS011;12272;52.426;17.100;2023-09-19T18:42:15;4.90;;;2.83;;
24090;SDS011;12272;52.426;17.100;2023-09-19T18:47:19;3.92;;;2.53;;
24090;SDS011;12272;52.426;17.100;2023-09-19T18:52:25;5.38;;;2.60;;
24090;SDS011;12272;52.426;17.100;2023-09-19T18:57:28;5.85;;;2.65;;
24090;SDS011;12272;52.426;17.100;2023-09-19T19:02:31;10.05;;;3.90;;
24090;SDS011;12272;52.426;17.100;2023-09-19T19:07:35;4.40;;;2.90;;
24090;SDS011;12272;52.426;17.100;2023-09-19T19:12:37;4.50;;;2.67;;
24090;SDS011;12272;52.426;17.100;2023-09-19T19:17:40;6.78;;;2.92;;
24090;SDS011;12272;52.426;17.100;2023-09-19T19:22:44;4.47;;;2.40;;
24090;SDS011;12272;52.426;17.100;2023-09-19T19:27:47;5.43;;;3.60;;
24090;SDS011;12272;52.426;17.100;2023-09-19T19:32:51;5.30;;;2.60;;
24090;SDS011;12272;52.426;17.100;2023-09-19T19:37:56;4.28;;;2.63;;
24090;SDS011;12272;52.426;17.100;2023-09-19T19:43:01;4.82;;;2.75;;
24090;SDS011;12272;52.426;17.100;2023-09-19T19:48:07;5.55;;;3.47;;
24090;SDS011;12272;52.426;17.100;2023-09-19T19:53:11;6.45;;;3.30;;
24090;SDS011;12272;52.426;17.100;2023-09-19T19:58:14;8.15;;;2.80;;
24090;SDS011;12272;52.426;17.100;2023-09-19T20:03:16;6.85;;;2.95;;
24090;SDS011;12272;52.426;17.100;2023-09-19T20:08:19;5.00;;;3.30;;
24090;SDS011;12272;52.426;17.100;2023-09-19T20:13:22;7.97;;;3.78;;
24090;SDS011;12272;52.426;17.100;2023-09-19T20:18:28;5.20;;;3.42;;
24090;SDS011;12272;52.426;17.100;2023-09-19T20:23:37;3.05;;;2.53;;
24090;SDS011;12272;52.426;17.100;2023-09-19T20:28:42;5.82;;;3.42;;
24090;SDS011;12272;52.426;17.100;2023-09-19T20:33:48;4.88;;;3.05;;
24090;SDS011;12272;52.426;17.100;2023-09-19T20:38:51;9.00;;;3.90;;
24090;SDS011;12272;52.426;17.100;2023-09-19T20:43:57;7.28;;;3.97;;
24090;SDS011;12272;52.426;17.100;2023-09-19T20:49:00;6.60;;;3.25;;
24090;SDS011;12272;52.426;17.100;2023-09-19T20:54:03;7.75;;;3.65;;
24090;SDS011;12272;52.426;17.100;2023-09-19T20:59:10;11.45;;;3.70;;
24090;SDS011;12272;52.426;17.100;2023-09-19T21:04:13;3.72;;;2.53;;
24090;SDS011;12272;52.426;17.100;2023-09-19T21:09:16;5.20;;;3.45;;
24090;SDS011;12272;52.426;17.100;2023-09-19T21:14:19;4.22;;;3.00;;
24090;SDS011;12272;52.426;17.100;2023-09-19T21:19:21;7.50;;;3.40;;
24090;SDS011;12272;52.426;17.100;2023-09-19T21:24:24;10.02;;;3.65;;
24090;SDS011;12272;52.426;17.100;2023-09-19T21:29:32;8.73;;;3.75;;
24090;SDS011;12272;52.426;17.100;2023-09-19T21:34:36;11.80;;;3.70;;
24090;SDS011;12272;52.426;17.100;2023-09-19T21:39:39;11.93;;;4.25;;
24090;SDS011;12272;52.426;17.100;2023-09-19T21:44:42;4.40;;;2.65;;
24090;SDS011;12272;52.426;17.100;2023-09-19T21:49:44;10.80;;;4.28;;
24090;SDS011;12272;52.426;17.100;2023-09-19T21:54:52;7.03;;;3.42;;
24090;SDS011;12272;52.426;17.100;2023-09-19T21:59:55;5.95;;;2.80;;
24090;SDS011;12272;52.426;17.100;2023-09-19T22:04:58;3.10;;;2.30;;
24090;SDS011;12272;52.426;17.100;2023-09-19T22:10:03;2.78;;;2.25;;
24090;SDS011;12272;52.426;17.100;2023-09-19T22:15:07;11.07;;;5.05;;
24090;SDS011;12272;52.426;17.100;2023-09-19T22:20:14;4.00;;;2.95;;
24090;SDS011;12272;52.426;17.100;2023-09-19T22:25:30;8.85;;;3.58;;
24090;SDS011;12272;52.426;17.100;2023-09-19T22:30:39;4.63;;;2.83;;
24090;SDS011;12272;52.426;17.100;2023-09-19T22:35:49;7.75;;;4.15;;
24090;SDS011;12272;52.426;17.100;2023-09-19T22:41:02;8.50;;;3.67;;
24090;SDS011;12272;52.426;17.100;2023-09-19T22:46:15;6.85;;;3.10;;
24090;SDS011;12272;52.426;17.100;2023-09-19T22:51:19;8.65;;;4.05;;
24090;SDS011;12272;52.426;17.100;2023-09-19T22:56:26;5.90;;;4.13;;
24090;SDS011;12272;52.426;17.100;2023-09-19T23:01:29;6.20;;;3.58;;
24090;SDS011;12272;52.426;17.100;2023-09-19T23:06:41;10.15;;;4.00;;
24090;SDS011;12272;52.426;17.100;2023-09-19T23:11:54;10.23;;;4.10;;
24090;SDS011;12272;52.426;17.100;2023-09-19T23:17:08;5.40;;;3.50;;
24090;SDS011;12272;52.426;17.100;2023-09-19T23:22:16;8.93;;;3.60;;
24090;SDS011;12272;52.426;17.100;2023-09-19T23:27:18;5.63;;;3.95;;
24090;SDS011;12272;52.426;17.100;2023-09-19T23:32:27;3.90;;;2.35;;
24090;SDS011;12272;52.426;17.100;2023-09-19T23:37:30;6.13;;;3.55;;
24090;SDS011;12272;52.426;17.100;2023-09-19T23:42:33;7.47;;;3.35;;
24090;SDS011;12272;52.426;17.100;2023-09-19T23:47:35;4.25;;;3.20;;
24090;SDS011;12272;52.426;17.100;2023-09-19T23:52:38;4.43;;;2.70;;
24090;SDS011;12272;52.426;17.100;2023-09-19T23:57:41;3.13;;;2.83;;
